Weather at Bydgoszcz Ignacy Jan Paderewski Airport

Public forecast

Using degrees Celsius for public forecast. Weather courtesy of forecast.io.

Current aviation weather report (METAR) for Bydgoszcz Ignacy Jan Paderewski Airport

2024/05/28 03:00 (retrieved 17 minutes ago)

EPBY 280300Z 13008KT CAVOK 13/06 Q1016

Closest aviation forecast (TAF) to Bydgoszcz Ignacy Jan Paderewski Airport

Forecast is more than 6 hours old.

Closest forecast is Slia─Ź Airport, 271.3 nm (502.4 km) S.

2024/05/27 18:24 (retrieved 9 hours ago)

TAF TAF LZSL 271630Z 2718/2806 VRB03KT CAVOK TEMPO 2718/2722 9999 SCT045